x

Nanakwa Shoal (46181) Wave Buoy

3:00am - Thu 25th Aug 2016 All times are PDT. -7 hours from GMT.

  • Sig Wave height 0.3ft
  • Peak Period 2s
  • Wind
    13mph, 16mph gusts
  • Sea Temp 65°f
  • Air Temp 65°f
  • Sea Pressure 1025.8mb
  • Nanakwa Shoal
  • Nanakwa Shoal

More Historic Weather Station data

Upgrade to MSW Pro to gain access to the past 30 days of data for over 8000 Wavebouys and Weather Stations around the globe.

Join Pro

Comparision Forecast

View Surf forecast
   
Thu 08/25 3:00am 0.3ft 2s 13 16 mph 1025.8mb 65f 65f
2:00am  -  3s 9
mph
1026mb 65f 66f
1:00am  -  8s 7 9 mph 1026.2mb 65f 67f
12:00am  -  9s 9 11 mph 1026mb 66f 67f
Wed 08/24 11:00pm  -  8s 7 9 mph 1025.9mb 66f 68f
10:00pm  -  5s 2 4 mph 1025.5mb 67f 69f
9:00pm 0.3ft 5s 7
mph
1025.2mb 67f 69f
8:00pm  -  2s 2 4 mph 1024.7mb 67f 69f
7:00pm  -  2s 2 4 mph 1024.6mb 68f 73f
6:00pm  -  2s 2 4 mph 1024.9mb 68f 74f
5:00pm  -  2s 2
mph
1025.5mb 67f 73f
4:00pm  -  2s 4
mph
1026.4mb 67f 72f
3:00pm  -  2s 4 7 mph 1027.1mb 67f 71f
2:00pm 0.3ft 2s 4
mph
1027.8mb 66f 70f
1:00pm 0.3ft 2s 2 4 mph 1028.6mb 65f 70f
12:00pm 0.3ft 2s 9 11 mph 1029.2mb 65f 68f
11:00am 0.7ft 2s 13 20 mph 1029.4mb 65f 66f
10:00am 0.7ft 2s 13 18 mph 1029.6mb 65f 64f
9:00am 0.7ft 2s 18 22 mph 1029.5mb 64f 63f
8:00am 0.7ft 2s 18 20 mph 1029.1mb 64f 62f
7:00am 0.7ft 2s 13 16 mph 1028.9mb 64f 63f
6:00am 0.7ft 2s 16 18 mph 1028.6mb 64f 62f
5:00am 0.7ft 2s 16 18 mph 1028mb 64f 62f
4:00am 0.3ft 2s 11 16 mph 1028.1mb 65f 63f
3:00am 0.3ft 2s 11 16 mph 1027.9mb 65f 63f
2:00am  -  8s 7 11 mph 1027.7mb 65f 63f
1:00am  -  7s 9 11 mph 1027.6mb 64f 64f
12:00am  -  7s 4 7 mph 1027.4mb 65f 65f
Tue 08/23 11:00pm  -  7s 4
mph
1027.2mb 65f 65f
10:00pm  -  5s 2 4 mph 1026.8mb 65f 65f
9:00pm  -  4s 2
mph
1026.2mb 65f 66f
8:00pm  -  2s  -  2 mph 1025.6mb 66f 66f
7:00pm  -  2s 2 4 mph 1025.2mb 67f 68f
6:00pm  -  2s 4 9 mph 1025mb 67f 69f
5:00pm  -  2s  -  2 mph 1025.2mb 68f 72f
4:00pm  -  2s  -  mph 1025.4mb 68f 69f
3:00pm  -  2s  -  2 mph 1025.8mb 67f 68f
2:00pm  -  2s 4
mph
1026.2mb 66f 67f
1:00pm  -  2s 4
mph
1026.7mb 66f 65f
12:00pm  -  2s 2
mph
1027mb 65f 64f
11:00am 0.3ft 2s 4 7 mph 1027.2mb 64f 62f
10:00am  -  3s 4 7 mph 1027.2mb 64f 60f
9:00am 0.3ft 2s 7 9 mph 1027mb 63f 58f
8:00am 0.3ft 2s 9 11 mph 1026.5mb 63f 57f
7:00am  -  7s 7 9 mph 1025.9mb 63f 57f
6:00am  -  6s 7 9 mph 1025.2mb 63f 57f
5:00am  -  5s 9 11 mph 1024.6mb 63f 58f
4:00am  -  5s 9 11 mph 1024.2mb 63f 58f
3:00am  -  5s 2 4 mph 1023.8mb 62f 58f
2:00am  -  2s 2
mph
1023.6mb 63f 58f
1:00am 0.3ft 2s 2
mph
1023.5mb 63f 59f
12:00am 0.3ft 2s 4 9 mph 1023.4mb 63f 60f
Mon 08/22 11:00pm 0.3ft 2s 9 11 mph 1023.1mb 63f 61f
10:00pm 0.3ft 3s 11 13 mph 1022.9mb 64f 62f
9:00pm 0.3ft 2s 9 11 mph 1022.2mb 64f 63f
8:00pm 0.3ft 3s 9 13 mph 1021.5mb 64f 64f
7:00pm 0.3ft 2s 9
mph
1021mb 64f 64f
6:00pm 0.3ft 2s 11 13 mph 1020.8mb 64f 64f
5:00pm 0.3ft 2s 7 9 mph 1020.9mb 64f 63f
4:00pm 0.3ft 2s 9 11 mph 1021mb 64f 62f
3:00pm  -  2s 11
mph
1020.9mb 64f 62f
2:00pm  -  2s 9
mph
1021mb 63f 61f
1:00pm  -  2s 9
mph
1020.9mb 63f 60f
12:00pm  -  4s 7 9 mph 1020.7mb 63f 59f
11:00am  -  4s 4 7 mph 1020.2mb 63f 58f
10:00am 0.3ft 3s 4
mph
1019.8mb 63f 58f
9:00am  -  2s 4 7 mph 1019.3mb 62f 57f
8:00am  -  2s 4 7 mph 1018.7mb 62f 57f
7:00am  -  5s 2 4 mph 1018mb 62f 56f
6:00am  -  5s 9 11 mph 1017.2mb 62f 57f
5:00am 0.3ft 5s 4 7 mph 1016.6mb 62f 57f
4:00am 0.3ft 2s 4
mph
1016mb 62f 57f
3:00am 0.3ft 2s 2 4 mph 1015.7mb 62f 58f
2:00am 0.3ft 2s 2 4 mph 1015.2mb 62f 58f
1:00am 0.3ft 2s 4 9 mph 1014.5mb 62f 59f
12:00am 0.7ft 2s 11 13 mph 1013.8mb 62f 60f
Sun 08/21 11:00pm 1ft 2s 13 18 mph 1013.5mb 62f 60f
10:00pm 1ft 2s 16 22 mph 1012.7mb 63f 61f
9:00pm 1ft 2s 18 22 mph 1011.8mb 63f 62f
8:00pm 1.3ft 2s 16 20 mph 1011.2mb 63f 62f
7:00pm 1.3ft 2s 20 27 mph 1010.4mb 63f 63f
6:00pm 1.3ft 2s 18 22 mph 1010mb 63f 62f
5:00pm 1.3ft 3s 18 25 mph 1009.5mb 63f 62f
4:00pm 1.3ft 2s 18 22 mph 1009.3mb 63f 61f
3:00pm 1ft 2s 20 27 mph 1009.1mb 62f 61f
2:00pm 1ft 2s 18 25 mph 1009.2mb 63f 60f
1:00pm 0.3ft 2s 13 22 mph 1009.4mb 62f 59f
12:00pm 0.7ft 2s 13 18 mph 1009.3mb 62f 58f